sensor_id;sensor_type;location;lat;lon;timestamp;pressure;altitude;pressure_sealevel;temperature
20867;BMP280;10593;48.398;10.698;2023-08-24T00:02:07;96438.63;;;31.17
20867;BMP280;10593;48.398;10.698;2023-08-24T00:04:33;96443.25;;;31.15
20867;BMP280;10593;48.398;10.698;2023-08-24T00:07:00;96430.38;;;31.10
20867;BMP280;10593;48.398;10.698;2023-08-24T00:09:26;96430.56;;;31.09
20867;BMP280;10593;48.398;10.698;2023-08-24T00:11:52;96434.19;;;31.08
20867;BMP280;10593;48.398;10.698;2023-08-24T00:14:18;96426.66;;;31.03
20867;BMP280;10593;48.398;10.698;2023-08-24T00:16:44;96438.09;;;31.04
20867;BMP280;10593;48.398;10.698;2023-08-24T00:19:10;96433.09;;;31.01
20867;BMP280;10593;48.398;10.698;2023-08-24T00:21:36;96426.25;;;30.98
20867;BMP280;10593;48.398;10.698;2023-08-24T00:24:02;96430.06;;;30.96
20867;BMP280;10593;48.398;10.698;2023-08-24T00:26:27;96429.38;;;30.94
20867;BMP280;10593;48.398;10.698;2023-08-24T00:28:53;96434.00;;;30.92
20867;BMP280;10593;48.398;10.698;2023-08-24T00:31:18;96425.31;;;30.90
20867;BMP280;10593;48.398;10.698;2023-08-24T00:33:44;96422.97;;;30.87
20867;BMP280;10593;48.398;10.698;2023-08-24T00:36:10;96417.94;;;30.84
20867;BMP280;10593;48.398;10.698;2023-08-24T00:38:36;96424.25;;;30.83
20867;BMP280;10593;48.398;10.698;2023-08-24T00:41:02;96426.34;;;30.79
20867;BMP280;10593;48.398;10.698;2023-08-24T00:43:28;96419.50;;;30.77
20867;BMP280;10593;48.398;10.698;2023-08-24T00:45:56;96418.69;;;30.76
20867;BMP280;10593;48.398;10.698;2023-08-24T00:48:23;96412.81;;;30.73
20867;BMP280;10593;48.398;10.698;2023-08-24T00:50:59;96418.25;;;30.71
20867;BMP280;10593;48.398;10.698;2023-08-24T00:53:26;96423.03;;;30.68
20867;BMP280;10593;48.398;10.698;2023-08-24T00:55:53;96413.66;;;30.64
20867;BMP280;10593;48.398;10.698;2023-08-24T00:58:20;96418.16;;;30.63
20867;BMP280;10593;48.398;10.698;2023-08-24T01:00:46;96411.72;;;30.56
20867;BMP280;10593;48.398;10.698;2023-08-24T01:03:12;96423.19;;;30.57
20867;BMP280;10593;48.398;10.698;2023-08-24T01:05:37;96413.69;;;30.54
20867;BMP280;10593;48.398;10.698;2023-08-24T01:08:03;96417.47;;;30.52
20867;BMP280;10593;48.398;10.698;2023-08-24T01:11:00;96416.06;;;30.48
20867;BMP280;10593;48.398;10.698;2023-08-24T01:14:08;96419.00;;;30.45
20867;BMP280;10593;48.398;10.698;2023-08-24T01:16:37;96418.31;;;30.43
20867;BMP280;10593;48.398;10.698;2023-08-24T01:19:11;96419.31;;;30.42
20867;BMP280;10593;48.398;10.698;2023-08-24T01:21:41;96421.53;;;30.37
20867;BMP280;10593;48.398;10.698;2023-08-24T01:24:30;96419.03;;;30.36
20867;BMP280;10593;48.398;10.698;2023-08-24T01:26:58;96415.84;;;30.32
20867;BMP280;10593;48.398;10.698;2023-08-24T01:29:25;96412.34;;;30.32
20867;BMP280;10593;48.398;10.698;2023-08-24T01:31:51;96418.09;;;30.27
20867;BMP280;10593;48.398;10.698;2023-08-24T01:34:17;96409.44;;;30.25
20867;BMP280;10593;48.398;10.698;2023-08-24T01:36:43;96413.91;;;30.25
20867;BMP280;10593;48.398;10.698;2023-08-24T01:39:26;96416.69;;;30.23
20867;BMP280;10593;48.398;10.698;2023-08-24T01:41:58;96411.81;;;30.19
20867;BMP280;10593;48.398;10.698;2023-08-24T01:44:29;96418.09;;;30.18
20867;BMP280;10593;48.398;10.698;2023-08-24T01:46:58;96411.28;;;30.15
20867;BMP280;10593;48.398;10.698;2023-08-24T01:49:29;96407.94;;;30.13
20867;BMP280;10593;48.398;10.698;2023-08-24T01:51:55;96404.72;;;30.10
20867;BMP280;10593;48.398;10.698;2023-08-24T01:54:21;96405.69;;;30.09
20867;BMP280;10593;48.398;10.698;2023-08-24T01:56:48;96405.81;;;30.07
20867;BMP280;10593;48.398;10.698;2023-08-24T01:59:14;96397.44;;;30.02
20867;BMP280;10593;48.398;10.698;2023-08-24T02:01:40;96399.22;;;30.02
20867;BMP280;10593;48.398;10.698;2023-08-24T02:04:05;96393.41;;;29.98
20867;BMP280;10593;48.398;10.698;2023-08-24T02:06:31;96386.69;;;29.94
20867;BMP280;10593;48.398;10.698;2023-08-24T02:08:57;96388.50;;;29.94
20867;BMP280;10593;48.398;10.698;2023-08-24T02:11:22;96380.81;;;29.91
20867;BMP280;10593;48.398;10.698;2023-08-24T02:13:48;96384.44;;;29.90
20867;BMP280;10593;48.398;10.698;2023-08-24T02:16:13;96380.28;;;29.87
20867;BMP280;10593;48.398;10.698;2023-08-24T02:18:39;96376.09;;;29.85
20867;BMP280;10593;48.398;10.698;2023-08-24T02:21:09;96368.28;;;29.83
20867;BMP280;10593;48.398;10.698;2023-08-24T02:23:37;96367.75;;;29.80
20867;BMP280;10593;48.398;10.698;2023-08-24T02:26:03;96367.88;;;29.78
20867;BMP280;10593;48.398;10.698;2023-08-24T02:28:29;96365.50;;;29.75
20867;BMP280;10593;48.398;10.698;2023-08-24T02:31:01;96360.34;;;29.74
20867;BMP280;10593;48.398;10.698;2023-08-24T02:33:27;96374.72;;;29.71
20867;BMP280;10593;48.398;10.698;2023-08-24T02:35:53;96375.84;;;29.69
20867;BMP280;10593;48.398;10.698;2023-08-24T02:38:18;96369.84;;;29.67
20867;BMP280;10593;48.398;10.698;2023-08-24T02:40:44;96368.28;;;29.64
20867;BMP280;10593;48.398;10.698;2023-08-24T02:43:10;96359.66;;;29.62
20867;BMP280;10593;48.398;10.698;2023-08-24T02:45:36;96352.81;;;29.60
20867;BMP280;10593;48.398;10.698;2023-08-24T02:48:02;96356.56;;;29.57
20867;BMP280;10593;48.398;10.698;2023-08-24T02:50:28;96359.22;;;29.57
20867;BMP280;10593;48.398;10.698;2023-08-24T02:52:53;96361.47;;;29.52
20867;BMP280;10593;48.398;10.698;2023-08-24T02:55:19;96353.50;;;29.52
20867;BMP280;10593;48.398;10.698;2023-08-24T02:57:45;96353.78;;;29.49
20867;BMP280;10593;48.398;10.698;2023-08-24T03:00:11;96351.16;;;29.49
20867;BMP280;10593;48.398;10.698;2023-08-24T03:02:39;96354.06;;;29.46
20867;BMP280;10593;48.398;10.698;2023-08-24T03:05:05;96358.50;;;29.46
20867;BMP280;10593;48.398;10.698;2023-08-24T03:07:31;96352.50;;;29.44
20867;BMP280;10593;48.398;10.698;2023-08-24T03:09:56;96359.75;;;29.42
20867;BMP280;10593;48.398;10.698;2023-08-24T03:12:22;96358.09;;;29.41
20867;BMP280;10593;48.398;10.698;2023-08-24T03:14:52;96357.38;;;29.39
20867;BMP280;10593;48.398;10.698;2023-08-24T03:17:19;96358.50;;;29.36
20867;BMP280;10593;48.398;10.698;2023-08-24T03:19:44;96353.31;;;29.35
20867;BMP280;10593;48.398;10.698;2023-08-24T03:22:10;96349.84;;;29.34
20867;BMP280;10593;48.398;10.698;2023-08-24T03:24:36;96354.59;;;29.31
20867;BMP280;10593;48.398;10.698;2023-08-24T03:27:02;96352.91;;;29.30
20867;BMP280;10593;48.398;10.698;2023-08-24T03:29:27;96346.22;;;29.26
20867;BMP280;10593;48.398;10.698;2023-08-24T03:31:53;96351.53;;;29.26
20867;BMP280;10593;48.398;10.698;2023-08-24T03:34:19;96349.13;;;29.23
20867;BMP280;10593;48.398;10.698;2023-08-24T03:36:46;96350.09;;;29.22
20867;BMP280;10593;48.398;10.698;2023-08-24T03:39:13;96346.19;;;29.16
20867;BMP280;10593;48.398;10.698;2023-08-24T03:41:41;96354.13;;;29.16
20867;BMP280;10593;48.398;10.698;2023-08-24T03:44:07;96359.59;;;29.15
20867;BMP280;10593;48.398;10.698;2023-08-24T03:46:32;96357.34;;;29.10
20867;BMP280;10593;48.398;10.698;2023-08-24T03:48:59;96351.19;;;29.10
20867;BMP280;10593;48.398;10.698;2023-08-24T03:51:24;96352.31;;;29.07
20867;BMP280;10593;48.398;10.698;2023-08-24T03:53:50;96344.50;;;29.06
20867;BMP280;10593;48.398;10.698;2023-08-24T03:56:16;96347.31;;;29.04
20867;BMP280;10593;48.398;10.698;2023-08-24T03:58:41;96350.09;;;29.03
20867;BMP280;10593;48.398;10.698;2023-08-24T04:01:11;96347.56;;;29.01
20867;BMP280;10593;48.398;10.698;2023-08-24T04:03:36;96340.88;;;28.97
20867;BMP280;10593;48.398;10.698;2023-08-24T04:06:02;96347.84;;;28.98
20867;BMP280;10593;48.398;10.698;2023-08-24T04:08:28;96348.94;;;28.96
20867;BMP280;10593;48.398;10.698;2023-08-24T04:10:54;96341.16;;;28.94
20867;BMP280;10593;48.398;10.698;2023-08-24T04:13:19;96343.22;;;28.91
20867;BMP280;10593;48.398;10.698;2023-08-24T04:15:45;96343.31;;;28.89
20867;BMP280;10593;48.398;10.698;2023-08-24T04:18:10;96340.94;;;28.86
20867;BMP280;10593;48.398;10.698;2023-08-24T04:20:36;96352.50;;;28.85
20867;BMP280;10593;48.398;10.698;2023-08-24T04:23:02;96356.25;;;28.83
20867;BMP280;10593;48.398;10.698;2023-08-24T04:25:28;96344.16;;;28.80
20867;BMP280;10593;48.398;10.698;2023-08-24T04:27:55;96345.13;;;28.79
20867;BMP280;10593;48.398;10.698;2023-08-24T04:30:20;96344.44;;;28.77
20867;BMP280;10593;48.398;10.698;2023-08-24T04:32:47;96346.34;;;28.75
20867;BMP280;10593;48.398;10.698;2023-08-24T04:35:13;96340.63;;;28.70
20867;BMP280;10593;48.398;10.698;2023-08-24T04:37:39;96341.59;;;28.69
20867;BMP280;10593;48.398;10.698;2023-08-24T04:40:05;96346.03;;;28.69
20867;BMP280;10593;48.398;10.698;2023-08-24T04:42:33;96343.56;;;28.67
20867;BMP280;10593;48.398;10.698;2023-08-24T04:44:59;96354.41;;;28.64
20867;BMP280;10593;48.398;10.698;2023-08-24T04:47:25;96342.16;;;28.63
20867;BMP280;10593;48.398;10.698;2023-08-24T04:49:50;96343.94;;;28.63
20867;BMP280;10593;48.398;10.698;2023-08-24T04:52:17;96337.00;;;28.62
20867;BMP280;10593;48.398;10.698;2023-08-24T04:54:43;96337.25;;;28.59
20867;BMP280;10593;48.398;10.698;2023-08-24T04:57:08;96333.63;;;28.60
20867;BMP280;10593;48.398;10.698;2023-08-24T04:59:34;96339.06;;;28.58
20867;BMP280;10593;48.398;10.698;2023-08-24T05:02:00;96330.41;;;28.56
20867;BMP280;10593;48.398;10.698;2023-08-24T05:04:26;96334.03;;;28.55
20867;BMP280;10593;48.398;10.698;2023-08-24T05:06:51;96335.28;;;28.51
20867;BMP280;10593;48.398;10.698;2023-08-24T05:09:17;96341.41;;;28.52
20867;BMP280;10593;48.398;10.698;2023-08-24T05:11:44;96345.72;;;28.53
20867;BMP280;10593;48.398;10.698;2023-08-24T05:14:09;96352.81;;;28.52
20867;BMP280;10593;48.398;10.698;2023-08-24T05:16:35;96349.47;;;28.50
20867;BMP280;10593;48.398;10.698;2023-08-24T05:19:00;96345.97;;;28.50
20867;BMP280;10593;48.398;10.698;2023-08-24T05:21:28;96343.22;;;28.51
20867;BMP280;10593;48.398;10.698;2023-08-24T05:23:54;96340.56;;;28.51
20867;BMP280;10593;48.398;10.698;2023-08-24T05:26:20;96343.22;;;28.51
20867;BMP280;10593;48.398;10.698;2023-08-24T05:28:48;96336.25;;;28.50
20867;BMP280;10593;48.398;10.698;2023-08-24T05:31:13;96340.56;;;28.51
20867;BMP280;10593;48.398;10.698;2023-08-24T05:33:39;96332.63;;;28.51
20867;BMP280;10593;48.398;10.698;2023-08-24T05:36:05;96334.31;;;28.52
20867;BMP280;10593;48.398;10.698;2023-08-24T05:38:30;96332.50;;;28.53
20867;BMP280;10593;48.398;10.698;2023-08-24T05:40:56;96332.38;;;28.54
20867;BMP280;10593;48.398;10.698;2023-08-24T05:43:22;96328.88;;;28.54
20867;BMP280;10593;48.398;10.698;2023-08-24T05:45:48;96317.19;;;28.56
20867;BMP280;10593;48.398;10.698;2023-08-24T05:48:14;96318.88;;;28.57
20867;BMP280;10593;48.398;10.698;2023-08-24T05:50:45;96316.22;;;28.57
20867;BMP280;10593;48.398;10.698;2023-08-24T05:53:11;96323.06;;;28.60
20867;BMP280;10593;48.398;10.698;2023-08-24T05:55:37;96318.59;;;28.60
20867;BMP280;10593;48.398;10.698;2023-08-24T05:58:04;96320.25;;;28.61
20867;BMP280;10593;48.398;10.698;2023-08-24T06:00:29;96320.03;;;28.64
20867;BMP280;10593;48.398;10.698;2023-08-24T06:02:55;96316.41;;;28.65
20867;BMP280;10593;48.398;10.698;2023-08-24T06:05:21;96322.38;;;28.67
20867;BMP280;10593;48.398;10.698;2023-08-24T06:07:48;96311.53;;;28.70
20867;BMP280;10593;48.398;10.698;2023-08-24T06:10:14;96305.25;;;28.71
20867;BMP280;10593;48.398;10.698;2023-08-24T06:12:39;96305.97;;;28.73
20867;BMP280;10593;48.398;10.698;2023-08-24T06:15:06;96305.69;;;28.76
20867;BMP280;10593;48.398;10.698;2023-08-24T06:17:35;96294.16;;;28.77
20867;BMP280;10593;48.398;10.698;2023-08-24T06:20:03;96300.13;;;28.79
20867;BMP280;10593;48.398;10.698;2023-08-24T06:22:29;96296.38;;;28.82
20867;BMP280;10593;48.398;10.698;2023-08-24T06:24:55;96299.59;;;28.85
20867;BMP280;10593;48.398;10.698;2023-08-24T06:27:25;96292.22;;;28.89
20867;BMP280;10593;48.398;10.698;2023-08-24T06:29:51;96292.13;;;28.90
20867;BMP280;10593;48.398;10.698;2023-08-24T06:32:16;96285.56;;;28.94
20867;BMP280;10593;48.398;10.698;2023-08-24T06:34:42;96291.28;;;28.99
20867;BMP280;10593;48.398;10.698;2023-08-24T06:37:07;96287.38;;;29.03
20867;BMP280;10593;48.398;10.698;2023-08-24T06:39:33;96285.16;;;29.08
20867;BMP280;10593;48.398;10.698;2023-08-24T06:41:59;96287.25;;;29.14
20867;BMP280;10593;48.398;10.698;2023-08-24T06:44:25;96281.13;;;29.23
20867;BMP280;10593;48.398;10.698;2023-08-24T06:46:50;96288.38;;;29.31
20867;BMP280;10593;48.398;10.698;2023-08-24T06:49:16;96280.72;;;29.37
20867;BMP280;10593;48.398;10.698;2023-08-24T06:51:41;96282.53;;;29.46
20867;BMP280;10593;48.398;10.698;2023-08-24T06:54:07;96279.03;;;29.55
20867;BMP280;10593;48.398;10.698;2023-08-24T06:56:33;96275.69;;;29.63
20867;BMP280;10593;48.398;10.698;2023-08-24T06:58:59;96279.31;;;29.71
20867;BMP280;10593;48.398;10.698;2023-08-24T07:01:24;96277.75;;;29.78
20867;BMP280;10593;48.398;10.698;2023-08-24T07:03:51;96262.25;;;29.83
20867;BMP280;10593;48.398;10.698;2023-08-24T07:06:17;96271.44;;;29.89
20867;BMP280;10593;48.398;10.698;2023-08-24T07:08:42;96263.06;;;29.93
20867;BMP280;10593;48.398;10.698;2023-08-24T07:11:08;96254.13;;;29.94
20867;BMP280;10593;48.398;10.698;2023-08-24T07:13:34;96254.13;;;29.94
20867;BMP280;10593;48.398;10.698;2023-08-24T07:16:00;96251.47;;;29.94
20867;BMP280;10593;48.398;10.698;2023-08-24T07:18:28;96253.84;;;29.97
20867;BMP280;10593;48.398;10.698;2023-08-24T07:20:54;96255.53;;;29.98
20867;BMP280;10593;48.398;10.698;2023-08-24T07:23:20;96264.19;;;30.00
20867;BMP280;10593;48.398;10.698;2023-08-24T07:25:46;96262.22;;;30.02
20867;BMP280;10593;48.398;10.698;2023-08-24T07:28:11;96271.75;;;30.05
20867;BMP280;10593;48.398;10.698;2023-08-24T07:30:37;96267.25;;;30.05
20867;BMP280;10593;48.398;10.698;2023-08-24T07:33:03;96262.50;;;30.09
20867;BMP280;10593;48.398;10.698;2023-08-24T07:35:29;96270.28;;;30.10
20867;BMP280;10593;48.398;10.698;2023-08-24T07:37:56;96271.53;;;30.16
20867;BMP280;10593;48.398;10.698;2023-08-24T07:40:21;96271.97;;;30.21
20867;BMP280;10593;48.398;10.698;2023-08-24T07:42:51;96280.97;;;30.28
20867;BMP280;10593;48.398;10.698;2023-08-24T07:45:20;96271.78;;;30.32
20867;BMP280;10593;48.398;10.698;2023-08-24T07:47:46;96268.97;;;30.33
20867;BMP280;10593;48.398;10.698;2023-08-24T07:50:12;96276.34;;;30.39
20867;BMP280;10593;48.398;10.698;2023-08-24T07:52:38;96284.69;;;30.44
20867;BMP280;10593;48.398;10.698;2023-08-24T07:55:08;96287.59;;;30.51
20867;BMP280;10593;48.398;10.698;2023-08-24T07:57:36;96294.25;;;30.54
20867;BMP280;10593;48.398;10.698;2023-08-24T08:00:04;96289.41;;;30.60
20867;BMP280;10593;48.398;10.698;2023-08-24T08:02:30;96284.63;;;30.63
20867;BMP280;10593;48.398;10.698;2023-08-24T08:04:58;96284.34;;;30.66
20867;BMP280;10593;48.398;10.698;2023-08-24T08:07:26;96276.91;;;30.69
20867;BMP280;10593;48.398;10.698;2023-08-24T08:09:51;96252.72;;;30.72
20867;BMP280;10593;48.398;10.698;2023-08-24T08:12:17;96217.38;;;30.72
20867;BMP280;10593;48.398;10.698;2023-08-24T08:14:43;96212.06;;;30.72
20867;BMP280;10593;48.398;10.698;2023-08-24T08:17:08;96225.34;;;30.72
20867;BMP280;10593;48.398;10.698;2023-08-24T08:19:34;96229.66;;;30.73
20867;BMP280;10593;48.398;10.698;2023-08-24T08:22:01;96235.81;;;30.73
20867;BMP280;10593;48.398;10.698;2023-08-24T08:24:27;96240.28;;;30.73
20867;BMP280;10593;48.398;10.698;2023-08-24T08:26:53;96248.09;;;30.74
20867;BMP280;10593;48.398;10.698;2023-08-24T08:29:18;96249.09;;;30.73
20867;BMP280;10593;48.398;10.698;2023-08-24T08:31:46;96252.13;;;30.78
20867;BMP280;10593;48.398;10.698;2023-08-24T08:34:11;96249.16;;;30.81
20867;BMP280;10593;48.398;10.698;2023-08-24T08:36:37;96254.88;;;30.86
20867;BMP280;10593;48.398;10.698;2023-08-24T08:39:03;96252.91;;;30.88
20867;BMP280;10593;48.398;10.698;2023-08-24T08:41:33;96249.81;;;30.93
20867;BMP280;10593;48.398;10.698;2023-08-24T08:44:05;96240.69;;;30.95
20867;BMP280;10593;48.398;10.698;2023-08-24T08:46:33;96242.06;;;30.99
20867;BMP280;10593;48.398;10.698;2023-08-24T08:49:00;96235.47;;;31.03
20867;BMP280;10593;48.398;10.698;2023-08-24T08:51:28;96242.97;;;31.08
20867;BMP280;10593;48.398;10.698;2023-08-24T08:53:54;96230.38;;;31.10
20867;BMP280;10593;48.398;10.698;2023-08-24T08:56:21;96230.63;;;31.16
20867;BMP280;10593;48.398;10.698;2023-08-24T08:58:49;96225.84;;;31.20
20867;BMP280;10593;48.398;10.698;2023-08-24T09:01:15;96227.53;;;31.21
20867;BMP280;10593;48.398;10.698;2023-08-24T09:03:42;96225.38;;;31.24
20867;BMP280;10593;48.398;10.698;2023-08-24T09:06:09;96231.75;;;31.31
20867;BMP280;10593;48.398;10.698;2023-08-24T09:08:35;96228.66;;;31.36
20867;BMP280;10593;48.398;10.698;2023-08-24T09:11:01;96232.66;;;31.40
20867;BMP280;10593;48.398;10.698;2023-08-24T09:13:29;96231.34;;;31.44
20867;BMP280;10593;48.398;10.698;2023-08-24T09:16:05;96222.25;;;31.46
20867;BMP280;10593;48.398;10.698;2023-08-24T09:18:38;96208.63;;;31.49
20867;BMP280;10593;48.398;10.698;2023-08-24T09:21:12;96209.16;;;31.53
20867;BMP280;10593;48.398;10.698;2023-08-24T09:23:52;96198.41;;;31.54
20867;BMP280;10593;48.398;10.698;2023-08-24T09:26:48;96203.41;;;31.57
20867;BMP280;10593;48.398;10.698;2023-08-24T09:29:15;96193.28;;;31.61
20867;BMP280;10593;48.398;10.698;2023-08-24T09:31:42;96188.47;;;31.64
20867;BMP280;10593;48.398;10.698;2023-08-24T09:34:11;96182.06;;;31.67
20867;BMP280;10593;48.398;10.698;2023-08-24T09:36:38;96166.94;;;31.67
20867;BMP280;10593;48.398;10.698;2023-08-24T09:39:05;96184.78;;;31.75
20867;BMP280;10593;48.398;10.698;2023-08-24T09:41:45;96182.47;;;31.80
20867;BMP280;10593;48.398;10.698;2023-08-24T09:44:11;96178.66;;;31.82
20867;BMP280;10593;48.398;10.698;2023-08-24T09:46:40;96174.03;;;31.84
20867;BMP280;10593;48.398;10.698;2023-08-24T09:49:09;96175.03;;;31.91
20867;BMP280;10593;48.398;10.698;2023-08-24T09:51:36;96173.56;;;31.97
20867;BMP280;10593;48.398;10.698;2023-08-24T09:54:10;96165.78;;;32.03
20867;BMP280;10593;48.398;10.698;2023-08-24T09:56:38;96167.66;;;32.11
20867;BMP280;10593;48.398;10.698;2023-08-24T09:59:11;96162.72;;;32.16
20867;BMP280;10593;48.398;10.698;2023-08-24T10:01:41;96154.94;;;32.22
20867;BMP280;10593;48.398;10.698;2023-08-24T10:04:09;96163.94;;;32.29
20867;BMP280;10593;48.398;10.698;2023-08-24T10:06:39;96165.97;;;32.35
20867;BMP280;10593;48.398;10.698;2023-08-24T10:09:22;96151.19;;;32.41
20867;BMP280;10593;48.398;10.698;2023-08-24T10:11:56;96155.00;;;32.46
20867;BMP280;10593;48.398;10.698;2023-08-24T10:14:31;96150.19;;;32.50
20867;BMP280;10593;48.398;10.698;2023-08-24T10:16:58;96148.19;;;32.52
20867;BMP280;10593;48.398;10.698;2023-08-24T10:19:25;96155.69;;;32.56
20867;BMP280;10593;48.398;10.698;2023-08-24T10:21:53;96156.22;;;32.60
20867;BMP280;10593;48.398;10.698;2023-08-24T10:24:22;96154.88;;;32.64
20867;BMP280;10593;48.398;10.698;2023-08-24T10:26:50;96144.59;;;32.69
20867;BMP280;10593;48.398;10.698;2023-08-24T10:29:16;96143.28;;;32.73
20867;BMP280;10593;48.398;10.698;2023-08-24T10:31:43;96138.13;;;32.79
20867;BMP280;10593;48.398;10.698;2023-08-24T10:34:09;96132.31;;;32.84
20867;BMP280;10593;48.398;10.698;2023-08-24T10:36:41;96127.31;;;32.89
20867;BMP280;10593;48.398;10.698;2023-08-24T10:39:07;96124.97;;;32.93
20867;BMP280;10593;48.398;10.698;2023-08-24T10:41:51;96119.34;;;32.97
20867;BMP280;10593;48.398;10.698;2023-08-24T10:44:34;96113.53;;;33.01
20867;BMP280;10593;48.398;10.698;2023-08-24T10:47:20;96119.31;;;33.04
20867;BMP280;10593;48.398;10.698;2023-08-24T10:52:37;96112.16;;;33.13
20867;BMP280;10593;48.398;10.698;2023-08-24T10:55:22;96102.66;;;33.18
20867;BMP280;10593;48.398;10.698;2023-08-24T10:57:59;96104.03;;;33.22
20867;BMP280;10593;48.398;10.698;2023-08-24T11:00:28;96103.50;;;33.27
20867;BMP280;10593;48.398;10.698;2023-08-24T11:02:55;96094.53;;;33.28
20867;BMP280;10593;48.398;10.698;2023-08-24T11:05:30;96089.69;;;33.31
20867;BMP280;10593;48.398;10.698;2023-08-24T11:08:05;96086.00;;;33.32
20867;BMP280;10593;48.398;10.698;2023-08-24T11:13:04;96079.03;;;33.39
20867;BMP280;10593;48.398;10.698;2023-08-24T11:15:37;96080.53;;;33.42
20867;BMP280;10593;48.398;10.698;2023-08-24T11:18:20;96074.66;;;33.46
20867;BMP280;10593;48.398;10.698;2023-08-24T11:21:00;96070.81;;;33.49
20867;BMP280;10593;48.398;10.698;2023-08-24T11:23:28;96063.31;;;33.52
20867;BMP280;10593;48.398;10.698;2023-08-24T11:25:56;96050.66;;;33.54
20867;BMP280;10593;48.398;10.698;2023-08-24T11:28:25;96055.28;;;33.60
20867;BMP280;10593;48.398;10.698;2023-08-24T11:30:52;96052.28;;;33.63
20867;BMP280;10593;48.398;10.698;2023-08-24T11:33:34;96050.28;;;33.65
20867;BMP280;10593;48.398;10.698;2023-08-24T11:36:04;96041.28;;;33.66
20867;BMP280;10593;48.398;10.698;2023-08-24T11:38:41;96043.28;;;33.72
20867;BMP280;10593;48.398;10.698;2023-08-24T11:41:18;96048.28;;;33.75
20867;BMP280;10593;48.398;10.698;2023-08-24T11:43:46;96041.94;;;33.76
20867;BMP280;10593;48.398;10.698;2023-08-24T11:46:15;96031.94;;;33.78
20867;BMP280;10593;48.398;10.698;2023-08-24T11:48:41;96032.75;;;33.79
20867;BMP280;10593;48.398;10.698;2023-08-24T11:51:12;96033.88;;;33.84
20867;BMP280;10593;48.398;10.698;2023-08-24T11:53:43;96033.53;;;33.87
20867;BMP280;10593;48.398;10.698;2023-08-24T11:56:13;96038.34;;;33.92
20867;BMP280;10593;48.398;10.698;2023-08-24T11:58:40;96030.34;;;33.92
20867;BMP280;10593;48.398;10.698;2023-08-24T12:01:10;96028.81;;;33.97
20867;BMP280;10593;48.398;10.698;2023-08-24T12:03:39;96028.81;;;33.97
20867;BMP280;10593;48.398;10.698;2023-08-24T12:06:14;96026.81;;;33.99
20867;BMP280;10593;48.398;10.698;2023-08-24T12:08:44;96019.47;;;34.01
20867;BMP280;10593;48.398;10.698;2023-08-24T12:11:18;96026.13;;;34.05
20867;BMP280;10593;48.398;10.698;2023-08-24T12:13:47;96021.44;;;34.07
20867;BMP280;10593;48.398;10.698;2023-08-24T12:16:16;96017.75;;;34.08
20867;BMP280;10593;48.398;10.698;2023-08-24T12:18:55;96020.06;;;34.11
20867;BMP280;10593;48.398;10.698;2023-08-24T12:21:24;96006.19;;;34.16
20867;BMP280;10593;48.398;10.698;2023-08-24T12:23:59;96006.72;;;34.19
20867;BMP280;10593;48.398;10.698;2023-08-24T12:26:27;96007.38;;;34.21
20867;BMP280;10593;48.398;10.698;2023-08-24T12:28:54;96001.66;;;34.24
20867;BMP280;10593;48.398;10.698;2023-08-24T12:31:20;95995.16;;;34.27
20867;BMP280;10593;48.398;10.698;2023-08-24T12:34:07;95991.94;;;34.31
20867;BMP280;10593;48.398;10.698;2023-08-24T12:36:38;95980.91;;;34.34
20867;BMP280;10593;48.398;10.698;2023-08-24T12:39:05;95977.50;;;34.40
20867;BMP280;10593;48.398;10.698;2023-08-24T12:41:33;95976.50;;;34.41
20867;BMP280;10593;48.398;10.698;2023-08-24T12:43:59;95968.59;;;34.48
20867;BMP280;10593;48.398;10.698;2023-08-24T12:46:31;95965.41;;;34.52
20867;BMP280;10593;48.398;10.698;2023-08-24T12:48:57;95966.53;;;34.58
20867;BMP280;10593;48.398;10.698;2023-08-24T12:51:22;95963.50;;;34.61
20867;BMP280;10593;48.398;10.698;2023-08-24T12:53:50;95960.28;;;34.65
20867;BMP280;10593;48.398;10.698;2023-08-24T12:56:16;95953.75;;;34.68
20867;BMP280;10593;48.398;10.698;2023-08-24T12:58:42;95949.75;;;34.72
20867;BMP280;10593;48.398;10.698;2023-08-24T13:01:07;95950.22;;;34.75
20867;BMP280;10593;48.398;10.698;2023-08-24T13:03:33;95942.66;;;34.79
20867;BMP280;10593;48.398;10.698;2023-08-24T13:06:01;95947.63;;;34.82
20867;BMP280;10593;48.398;10.698;2023-08-24T13:08:27;95941.13;;;34.84
20867;BMP280;10593;48.398;10.698;2023-08-24T13:10:53;95938.06;;;34.87
20867;BMP280;10593;48.398;10.698;2023-08-24T13:13:18;95933.38;;;34.89
20867;BMP280;10593;48.398;10.698;2023-08-24T13:15:49;95923.31;;;34.91
20867;BMP280;10593;48.398;10.698;2023-08-24T13:18:14;95932.81;;;34.94
20867;BMP280;10593;48.398;10.698;2023-08-24T13:20:40;95914.94;;;34.94
20867;BMP280;10593;48.398;10.698;2023-08-24T13:23:06;95910.25;;;34.96
20867;BMP280;10593;48.398;10.698;2023-08-24T13:25:32;95918.91;;;34.98
20867;BMP280;10593;48.398;10.698;2023-08-24T13:27:57;95913.56;;;34.98
20867;BMP280;10593;48.398;10.698;2023-08-24T13:30:23;95904.16;;;35.02
20867;BMP280;10593;48.398;10.698;2023-08-24T13:32:48;95903.16;;;35.03
20867;BMP280;10593;48.398;10.698;2023-08-24T13:35:14;95896.78;;;35.04
20867;BMP280;10593;48.398;10.698;2023-08-24T13:37:40;95889.41;;;35.06
20867;BMP280;10593;48.398;10.698;2023-08-24T13:40:06;95884.72;;;35.08
20867;BMP280;10593;48.398;10.698;2023-08-24T13:42:33;95883.72;;;35.09
20867;BMP280;10593;48.398;10.698;2023-08-24T13:44:59;95881.69;;;35.11
20867;BMP280;10593;48.398;10.698;2023-08-24T13:47:24;95875.13;;;35.14
20867;BMP280;10593;48.398;10.698;2023-08-24T13:49:50;95875.97;;;35.14
20867;BMP280;10593;48.398;10.698;2023-08-24T13:52:16;95878.13;;;35.19
20867;BMP280;10593;48.398;10.698;2023-08-24T13:54:44;95880.78;;;35.19
20867;BMP280;10593;48.398;10.698;2023-08-24T13:57:10;95875.88;;;35.22
20867;BMP280;10593;48.398;10.698;2023-08-24T13:59:36;95865.84;;;35.24
20867;BMP280;10593;48.398;10.698;2023-08-24T14:02:02;95863.81;;;35.26
20867;BMP280;10593;48.398;10.698;2023-08-24T14:04:29;95869.63;;;35.30
20867;BMP280;10593;48.398;10.698;2023-08-24T14:06:54;95866.56;;;35.33